Time;durP1;ratioP1;P1;durP2;ratioP2;P2;SDS_P1;SDS_P2;PMS_P1;PMS_P2;Temp;Humidity;BMP_temperature;BMP_pressure;BME280_temperature;BME280_humidity;BME280_pressure;Samples;Min_cycle;Max_cycle;Signal;HPM_P1;HPM_P2
2023/04/25 00:01:56;;;;;;;11.43;4.30;;;13.40;60.20;;;;;;5056003;28;20545;-83
2023/04/25 00:04:23;;;;;;;4.60;3.93;;;13.60;59.70;;;;;;5092306;28;20470;-85
2023/04/25 00:06:52;;;;;;;4.83;4.33;;;13.80;59.40;;;;;;5094513;28;20529;-85
2023/04/25 00:09:19;;;;;;;5.87;4.20;;;13.90;59.90;;;;;;5049021;28;20456;-86
2023/04/25 00:11:46;;;;;;;6.87;4.03;;;14.00;59.60;;;;;;5092910;28;20470;-85
2023/04/25 00:14:14;;;;;;;6.30;3.90;;;14.10;59.10;;;;;;5077353;28;20469;-84
2023/04/25 00:16:43;;;;;;;6.27;4.30;;;14.20;59.60;;;;;;5068963;28;20486;-86
2023/04/25 00:19:11;;;;;;;6.30;3.80;;;14.10;59.90;;;;;;5094472;28;20446;-84
2023/04/25 00:21:40;;;;;;;6.67;5.13;;;14.30;59.60;;;;;;5092867;28;20547;-85
2023/04/25 00:24:07;;;;;;;5.80;5.23;;;14.50;59.60;;;;;;5083863;28;20471;-84
2023/04/25 00:26:35;;;;;;;6.10;4.73;;;14.50;59.60;;;;;;5076479;28;20493;-87
2023/04/25 00:29:02;;;;;;;5.70;4.50;;;14.50;59.80;;;;;;5087107;28;20455;-85
2023/04/25 00:31:30;;;;;;;5.80;4.40;;;14.60;59.70;;;;;;5074420;28;20475;-86
2023/04/25 00:33:57;;;;;;;7.47;4.20;;;14.60;58.80;;;;;;5074316;28;20489;-85
2023/04/25 00:36:25;;;;;;;3.43;3.13;;;14.40;58.40;;;;;;5091445;28;20459;-87
2023/04/25 00:38:54;;;;;;;5.77;3.60;;;14.10;58.90;;;;;;5043671;28;20447;-85
2023/04/25 00:41:21;;;;;;;5.53;4.40;;;13.90;59.40;;;;;;5059498;28;21063;-88
2023/04/25 00:43:49;;;;;;;7.30;4.90;;;14.00;60.10;;;;;;5107056;27;20487;-85
2023/04/25 00:46:16;;;;;;;5.20;4.17;;;14.10;60.20;;;;;;5079276;28;20950;-86
2023/04/25 00:48:45;;;;;;;5.30;4.23;;;14.30;60.30;;;;;;5090480;28;20467;-85
2023/04/25 00:51:16;;;;;;;8.97;4.97;;;14.30;60.40;;;;;;5075866;28;21229;-84
2023/04/25 00:53:44;;;;;;;8.73;4.13;;;14.30;59.90;;;;;;5071729;28;20509;-85
2023/04/25 00:56:11;;;;;;;5.07;4.00;;;14.30;59.40;;;;;;5077356;28;20552;-86
2023/04/25 00:58:39;;;;;;;3.93;3.50;;;13.90;59.20;;;;;;5083681;28;20489;-85
2023/04/25 01:01:07;;;;;;;5.17;3.20;;;13.60;59.40;;;;;;5093223;27;20447;-86
2023/04/25 01:03:40;;;;;;;4.60;3.80;;;13.20;60.70;;;;;;5076938;28;20464;-84
2023/04/25 01:06:10;;;;;;;3.50;2.80;;;13.00;61.80;;;;;;5111123;27;20486;-86
2023/04/25 01:08:38;;;;;;;8.70;4.20;;;12.90;62.40;;;;;;5090761;28;20451;-84
2023/04/25 01:11:06;;;;;;;5.10;3.63;;;13.00;63.20;;;;;;5078426;28;20496;-87
2023/04/25 01:13:34;;;;;;;3.93;3.37;;;13.10;62.60;;;;;;5069528;28;20486;-84
2023/04/25 01:16:01;;;;;;;4.20;3.30;;;13.10;62.50;;;;;;5069045;28;20484;-86
2023/04/25 01:18:29;;;;;;;4.73;3.30;;;13.20;61.70;;;;;;5062758;27;20431;-86
2023/04/25 01:20:56;;;;;;;4.47;3.40;;;12.90;62.10;;;;;;5087770;28;20447;-86
2023/04/25 01:23:25;;;;;;;2.80;2.60;;;13.00;62.40;;;;;;5046693;28;20440;-86
2023/04/25 01:25:53;;;;;;;2.87;2.60;;;13.00;61.90;;;;;;5091788;28;20457;-87
2023/04/25 01:28:21;;;;;;;3.47;3.17;;;13.00;62.70;;;;;;5064301;28;20541;-87
2023/04/25 01:30:49;;;;;;;3.30;2.67;;;13.10;61.80;;;;;;5064308;28;20528;-84
2023/04/25 01:33:16;;;;;;;3.23;2.93;;;13.10;61.50;;;;;;5049677;28;20444;-85
2023/04/25 01:35:44;;;;;;;2.90;2.60;;;13.10;61.10;;;;;;5095499;27;20447;-83
2023/04/25 01:38:13;;;;;;;3.20;2.30;;;13.20;61.40;;;;;;5074693;28;20440;-84
2023/04/25 01:40:42;;;;;;;2.43;2.17;;;13.20;61.10;;;;;;5058460;28;20451;-84
2023/04/25 01:43:10;;;;;;;3.60;2.20;;;13.10;60.90;;;;;;5096950;27;20467;-86
2023/04/25 01:45:39;;;;;;;1.80;1.70;;;13.00;61.30;;;;;;5062528;28;20440;-85
2023/04/25 01:48:07;;;;;;;2.43;2.10;;;13.10;61.70;;;;;;5059977;28;20529;-83
2023/04/25 01:50:34;;;;;;;2.07;1.90;;;13.00;61.30;;;;;;5090095;27;20444;-85
2023/04/25 01:53:02;;;;;;;2.83;2.10;;;12.80;61.60;;;;;;5051826;28;20989;-86
2023/04/25 01:55:30;;;;;;;2.33;2.13;;;13.00;62.10;;;;;;5096466;27;20481;-85
2023/04/25 01:58:08;;;;;;;2.40;2.07;;;13.00;62.00;;;;;;5066739;28;20452;-86
2023/04/25 02:00:55;;;;;;;2.30;2.10;;;13.00;61.90;;;;;;5091933;28;20483;-84
2023/04/25 02:03:25;;;;;;;2.00;1.80;;;13.10;61.50;;;;;;5079480;28;20451;-86
2023/04/25 02:05:52;;;;;;;2.43;2.23;;;13.10;61.40;;;;;;5109378;27;20447;-86
2023/04/25 02:08:20;;;;;;;2.93;2.30;;;13.10;61.80;;;;;;5086187;28;20460;-85
2023/04/25 02:10:47;;;;;;;2.43;2.20;;;13.30;61.30;;;;;;5066999;27;20456;-85
2023/04/25 02:13:22;;;;;;;2.03;1.83;;;13.40;60.40;;;;;;5109114;27;20452;-87
2023/04/25 02:16:01;;;;;;;3.43;2.13;;;13.30;60.70;;;;;;5080304;28;20523;-84
2023/04/25 02:18:28;;;;;;;1.97;1.70;;;13.50;59.80;;;;;;5095640;28;20944;-87
2023/04/25 02:20:55;;;;;;;2.17;1.97;;;13.50;60.80;;;;;;5081796;28;20466;-85
2023/04/25 02:23:22;;;;;;;3.20;2.40;;;13.60;59.70;;;;;;5093946;28;21407;-86
2023/04/25 02:25:49;;;;;;;3.00;2.30;;;13.70;59.70;;;;;;5074155;28;20435;-85
2023/04/25 02:28:17;;;;;;;3.17;2.40;;;13.60;59.40;;;;;;5052179;28;20482;-84
2023/04/25 02:30:45;;;;;;;3.13;2.20;;;13.60;59.30;;;;;;5074732;28;20966;-85
2023/04/25 02:33:12;;;;;;;3.97;2.37;;;13.40;59.30;;;;;;5096242;28;20427;-85
2023/04/25 02:35:40;;;;;;;3.90;2.67;;;13.40;59.50;;;;;;5091747;27;21028;-85
2023/04/25 02:38:07;;;;;;;3.30;3.00;;;13.50;59.70;;;;;;5060898;28;20516;-87
2023/04/25 02:40:34;;;;;;;2.50;2.30;;;13.60;59.80;;;;;;5083603;28;20447;-86
2023/04/25 02:43:01;;;;;;;3.53;2.90;;;13.60;59.50;;;;;;5063984;28;20949;-86
2023/04/25 02:45:28;;;;;;;3.43;2.43;;;13.60;59.50;;;;;;5063907;28;20470;-85
2023/04/25 02:47:58;;;;;;;5.53;2.80;;;13.40;59.00;;;;;;5045200;28;20479;-85
2023/04/25 02:50:25;;;;;;;4.97;3.50;;;13.40;59.60;;;;;;5059354;28;20492;-84
2023/04/25 02:52:52;;;;;;;3.23;2.90;;;13.40;59.30;;;;;;5052776;28;20448;-87
2023/04/25 02:55:25;;;;;;;4.93;2.77;;;13.30;59.30;;;;;;5081363;28;20462;-84
2023/04/25 02:57:55;;;;;;;5.13;3.10;;;13.30;58.80;;;;;;5093448;27;20473;-86
2023/04/25 03:00:33;;;;;;;4.00;3.50;;;13.10;59.40;;;;;;5073651;28;20475;-86
2023/04/25 03:03:01;;;;;;;3.60;3.17;;;12.90;60.20;;;;;;5074951;27;20989;-87
2023/04/25 03:05:29;;;;;;;7.13;3.10;;;12.80;60.80;;;;;;5077260;28;20467;-86
2023/04/25 03:07:56;;;;;;;4.83;3.00;;;12.80;60.10;;;;;;5107330;27;20497;-87
2023/04/25 03:10:23;;;;;;;4.30;3.40;;;12.90;60.10;;;;;;5087265;28;20498;-86
2023/04/25 03:12:50;;;;;;;3.17;2.80;;;12.90;59.50;;;;;;5077057;28;20447;-85
2023/04/25 03:15:17;;;;;;;3.17;2.87;;;13.00;59.90;;;;;;5070638;28;20467;-85
2023/04/25 03:17:44;;;;;;;3.40;2.70;;;13.10;59.40;;;;;;5098692;28;20439;-84
2023/04/25 03:20:13;;;;;;;5.90;2.80;;;13.10;59.70;;;;;;5042704;28;20458;-83
2023/04/25 03:22:40;;;;;;;4.03;3.07;;;13.30;59.70;;;;;;5060568;28;20443;-86
2023/04/25 03:25:08;;;;;;;3.40;2.90;;;13.30;59.20;;;;;;5080183;28;20462;-86
2023/04/25 03:27:35;;;;;;;4.13;3.50;;;13.20;59.30;;;;;;5046302;28;20482;-85
2023/04/25 03:30:03;;;;;;;4.23;2.90;;;13.20;59.10;;;;;;5084239;28;20458;-87
2023/04/25 03:32:31;;;;;;;5.53;3.20;;;13.40;59.10;;;;;;5068565;28;20436;-87
2023/04/25 03:34:58;;;;;;;4.53;3.10;;;13.30;59.40;;;;;;5073536;28;20467;-86
2023/04/25 03:37:29;;;;;;;3.73;3.30;;;13.20;59.20;;;;;;5049418;28;20475;-85
2023/04/25 03:39:56;;;;;;;4.90;3.00;;;13.20;59.30;;;;;;5050846;28;20451;-84
2023/04/25 03:42:26;;;;;;;3.43;3.13;;;13.20;59.50;;;;;;5112572;27;20724;-86
2023/04/25 03:44:54;;;;;;;4.03;3.70;;;13.40;58.90;;;;;;5075473;28;20970;-86
2023/04/25 03:47:21;;;;;;;4.70;3.27;;;13.30;59.50;;;;;;5090849;28;20827;-86
2023/04/25 03:49:51;;;;;;;6.53;4.70;;;13.20;59.20;;;;;;5093868;28;20527;-85
2023/04/25 03:52:20;;;;;;;5.70;3.30;;;13.30;59.00;;;;;;5052264;28;20510;-85
2023/04/25 03:54:49;;;;;;;3.70;3.17;;;13.40;59.10;;;;;;5087311;28;20482;-86
2023/04/25 03:57:19;;;;;;;8.20;3.57;;;13.30;59.40;;;;;;5045181;28;20448;-86
2023/04/25 03:59:46;;;;;;;7.30;3.67;;;13.20;60.10;;;;;;5048004;28;20949;-86
2023/04/25 04:02:15;;;;;;;6.20;4.33;;;13.00;59.80;;;;;;5086095;28;20446;-85
2023/04/25 04:04:43;;;;;;;5.60;3.50;;;13.20;60.20;;;;;;5111049;27;21010;-87
2023/04/25 04:07:11;;;;;;;4.13;3.47;;;13.20;60.00;;;;;;5055439;28;20455;-85
2023/04/25 04:09:41;;;;;;;4.47;3.40;;;13.20;60.30;;;;;;5093178;28;20466;-86
2023/04/25 04:12:14;;;;;;;4.90;4.40;;;13.10;60.70;;;;;;5067791;28;20459;-85
2023/04/25 04:14:42;;;;;;;4.60;3.87;;;13.10;60.70;;;;;;5092801;28;20467;-87
2023/04/25 04:17:10;;;;;;;4.77;3.90;;;13.20;60.60;;;;;;5091299;28;20448;-86
2023/04/25 04:19:37;;;;;;;6.60;4.63;;;13.00;60.70;;;;;;5066002;28;20538;-84
2023/04/25 04:22:10;;;;;;;6.20;4.47;;;13.10;61.10;;;;;;5050650;28;20439;-84
2023/04/25 04:24:37;;;;;;;7.37;5.17;;;13.10;60.70;;;;;;5076229;28;20496;-87
2023/04/25 04:27:07;;;;;;;7.60;5.40;;;13.10;61.20;;;;;;5110170;27;20478;-87
2023/04/25 04:29:39;;;;;;;10.00;6.33;;;13.20;60.60;;;;;;5083649;28;20983;-87
2023/04/25 04:32:19;;;;;;;5.10;4.60;;;13.00;60.30;;;;;;5079095;28;20443;-87
2023/04/25 04:34:48;;;;;;;10.77;8.13;;;13.10;60.50;;;;;;5053921;28;20470;-86
2023/04/25 04:37:17;;;;;;;12.40;7.47;;;13.00;60.60;;;;;;5047661;28;20443;-87
2023/04/25 04:39:45;;;;;;;17.90;12.97;;;13.10;60.10;;;;;;5074259;28;20435;-85
2023/04/25 04:42:24;;;;;;;10.30;7.30;;;13.10;60.70;;;;;;5088426;28;20475;-85
2023/04/25 04:45:16;;;;;;;9.03;6.93;;;13.40;60.20;;;;;;5093901;28;20470;-86
2023/04/25 04:47:44;;;;;;;9.47;6.63;;;13.50;60.00;;;;;;5058490;28;20458;-87
2023/04/25 04:50:35;;;;;;;5.90;5.03;;;13.60;59.90;;;;;;5055625;28;20439;-86
2023/04/25 04:53:21;;;;;;;12.87;11.57;;;13.60;59.10;;;;;;5082263;28;20436;-86
2023/04/25 04:56:07;;;;;;;7.00;6.30;;;13.40;59.00;;;;;;5078549;28;20455;-84
2023/04/25 04:58:56;;;;;;;25.40;19.57;;;13.30;59.60;;;;;;5058494;28;20458;-85
2023/04/25 05:01:51;;;;;;;13.33;6.33;;;13.30;59.50;;;;;;5089727;28;20456;-86
2023/04/25 05:04:26;;;;;;;7.73;5.20;;;13.30;59.80;;;;;;5082388;28;20566;-90
2023/04/25 05:07:04;;;;;;;9.07;6.90;;;13.40;60.10;;;;;;5103714;27;20486;-85
2023/04/25 05:09:43;;;;;;;9.80;7.50;;;13.30;59.80;;;;;;5053330;28;20474;-84
2023/04/25 05:12:30;;;;;;;10.50;7.07;;;13.30;60.00;;;;;;5093863;27;20576;-86
2023/04/25 05:15:16;;;;;;;11.70;8.60;;;13.20;60.40;;;;;;5080801;28;20770;-86
2023/04/25 05:18:01;;;;;;;9.00;7.53;;;13.10;59.80;;;;;;5088141;27;20454;-85
2023/04/25 05:20:54;;;;;;;8.07;6.93;;;13.00;60.20;;;;;;5089397;27;20647;-85
2023/04/25 05:23:21;;;;;;;11.40;7.23;;;12.80;60.40;;;;;;5063116;28;20451;-86
2023/04/25 05:26:13;;;;;;;7.90;6.20;;;12.90;61.10;;;;;;5085988;27;20937;-85
2023/04/25 05:28:51;;;;;;;9.73;6.93;;;13.20;60.50;;;;;;5069779;28;20466;-86
2023/04/25 05:31:37;;;;;;;11.80;7.30;;;13.40;59.70;;;;;;5091057;27;20596;-87
2023/04/25 05:34:16;;;;;;;8.87;6.03;;;13.30;59.50;;;;;;5087777;28;20612;-86
2023/04/25 05:36:58;;;;;;;12.57;7.47;;;13.20;59.90;;;;;;5069068;28;20878;-86
2023/04/25 05:39:26;;;;;;;8.93;6.87;;;13.20;59.40;;;;;;5069751;28;20434;-86
2023/04/25 05:41:53;;;;;;;10.03;6.13;;;13.40;59.00;;;;;;5088619;27;20454;-86
2023/04/25 05:44:47;;;;;;;10.13;6.70;;;13.30;59.40;;;;;;5068071;28;20482;-86
2023/04/25 05:47:37;;;;;;;8.03;6.37;;;13.40;59.60;;;;;;5080200;28;20479;-85
2023/04/25 05:50:10;;;;;;;10.97;6.43;;;13.50;59.20;;;;;;5101116;27;20505;-86
2023/04/25 05:53:05;;;;;;;11.40;6.13;;;13.50;59.10;;;;;;5053927;28;20455;-86
2023/04/25 05:55:39;;;;;;;10.07;7.20;;;13.60;59.40;;;;;;5062850;28;20550;-84
2023/04/25 05:58:20;;;;;;;9.97;6.87;;;13.40;59.10;;;;;;5064339;28;20440;-86
2023/04/25 06:00:47;;;;;;;9.17;6.93;;;13.40;59.90;;;;;;5100765;27;20503;-86
2023/04/25 06:03:15;;;;;;;9.40;6.97;;;13.50;59.80;;;;;;5065110;28;20491;-86
2023/04/25 06:05:44;;;;;;;12.90;7.47;;;13.40;59.80;;;;;;5077614;28;20459;-84
2023/04/25 06:08:11;;;;;;;11.07;6.73;;;13.30;59.40;;;;;;5080489;28;20439;-85
2023/04/25 06:10:39;;;;;;;13.03;7.40;;;13.30;59.50;;;;;;5089051;28;20530;-87
2023/04/25 06:13:06;;;;;;;10.50;6.80;;;13.30;59.50;;;;;;5070677;28;20597;-84
2023/04/25 06:15:35;;;;;;;17.27;8.07;;;13.40;59.90;;;;;;5081994;28;20464;-85
2023/04/25 06:18:02;;;;;;;12.20;8.50;;;13.60;59.80;;;;;;5057700;27;20944;-86
2023/04/25 06:20:31;;;;;;;14.10;8.10;;;13.40;59.50;;;;;;5043675;28;20454;-87
2023/04/25 06:23:02;;;;;;;11.80;7.53;;;13.50;60.90;;;;;;5097976;28;20581;-85
2023/04/25 06:25:46;;;;;;;10.23;7.50;;;13.60;59.90;;;;;;5046679;28;20948;-84
2023/04/25 06:28:13;;;;;;;9.00;7.23;;;13.70;58.80;;;;;;5061036;28;20581;-85
2023/04/25 06:30:41;;;;;;;7.57;6.50;;;13.80;58.60;;;;;;5068938;28;20592;-85
2023/04/25 06:33:12;;;;;;;9.97;6.77;;;13.60;57.10;;;;;;5055326;28;20448;-85
2023/04/25 06:35:44;;;;;;;15.63;5.17;;;13.40;57.20;;;;;;5043080;28;20564;-86
2023/04/25 06:38:16;;;;;;;7.93;5.47;;;13.20;55.40;;;;;;5085245;28;20461;-85
2023/04/25 06:40:47;;;;;;;7.00;5.27;;;13.30;55.50;;;;;;5059647;28;20725;-88
2023/04/25 06:43:14;;;;;;;9.23;5.90;;;13.40;55.80;;;;;;5046306;28;20490;-87
2023/04/25 06:45:57;;;;;;;7.53;5.20;;;13.20;54.20;;;;;;5054426;28;20493;-85
2023/04/25 06:48:27;;;;;;;9.20;5.50;;;12.90;54.90;;;;;;5058337;28;20520;-85
2023/04/25 06:50:56;;;;;;;8.47;5.00;;;12.80;55.60;;;;;;5039317;28;20481;-84
2023/04/25 06:53:25;;;;;;;9.00;5.43;;;12.60;53.90;;;;;;5070665;28;21013;-87
2023/04/25 06:55:58;;;;;;;7.57;6.40;;;12.60;56.30;;;;;;5085651;28;20458;-85
2023/04/25 06:58:30;;;;;;;9.30;5.57;;;12.90;56.90;;;;;;5073157;28;20969;-86
2023/04/25 07:01:09;;;;;;;9.47;5.10;;;13.00;54.10;;;;;;5073254;28;20455;-86
2023/04/25 07:03:37;;;;;;;10.90;4.60;;;13.00;55.10;;;;;;5075802;28;21230;-85
2023/04/25 07:06:09;;;;;;;6.87;4.40;;;13.10;54.20;;;;;;5086606;28;20451;-89
2023/04/25 07:08:37;;;;;;;6.50;5.00;;;13.00;52.00;;;;;;5045161;28;21201;-86
2023/04/25 07:11:05;;;;;;;5.70;4.80;;;12.90;52.60;;;;;;5063625;28;20819;-84
2023/04/25 07:13:32;;;;;;;8.03;4.53;;;12.90;53.60;;;;;;5071332;28;20464;-85
2023/04/25 07:16:00;;;;;;;6.33;4.80;;;13.10;53.00;;;;;;5086971;28;20444;-85
2023/04/25 07:18:29;;;;;;;8.73;4.70;;;13.10;52.60;;;;;;5062129;28;20452;-85
2023/04/25 07:20:56;;;;;;;5.60;4.07;;;13.20;52.40;;;;;;5078240;28;20509;-85
2023/04/25 07:23:24;;;;;;;9.27;4.10;;;13.30;52.30;;;;;;5067634;28;20519;-86
2023/04/25 07:25:53;;;;;;;8.07;3.77;;;13.40;52.60;;;;;;5072608;28;20451;-86
2023/04/25 07:28:22;;;;;;;5.27;3.23;;;13.50;51.40;;;;;;5047037;28;20697;-84
2023/04/25 07:30:49;;;;;;;7.03;3.73;;;13.60;51.00;;;;;;5088543;28;20983;-84
2023/04/25 07:33:17;;;;;;;8.30;3.90;;;13.70;51.20;;;;;;5053830;28;20439;-84
2023/04/25 07:35:44;;;;;;;5.57;3.30;;;13.40;49.00;;;;;;5070506;28;20547;-84
2023/04/25 07:38:11;;;;;;;4.87;3.07;;;13.40;50.00;;;;;;5070924;28;21050;-85
2023/04/25 07:40:39;;;;;;;4.00;3.20;;;13.30;50.20;;;;;;5094696;28;20456;-87
2023/04/25 07:43:12;;;;;;;5.50;2.90;;;13.40;49.20;;;;;;5070425;28;20544;-86
2023/04/25 07:45:55;;;;;;;2.90;2.60;;;13.40;49.10;;;;;;5091995;28;21088;-84
2023/04/25 07:48:22;;;;;;;7.23;3.50;;;13.60;51.10;;;;;;5079350;28;20439;-87
2023/04/25 07:50:52;;;;;;;5.10;3.67;;;13.70;49.30;;;;;;5046730;28;20459;-86
2023/04/25 07:53:19;;;;;;;5.43;3.03;;;13.70;48.40;;;;;;5047692;28;21085;-86
2023/04/25 07:56:02;;;;;;;4.13;3.20;;;13.70;49.50;;;;;;5079523;28;20542;-84
2023/04/25 07:58:33;;;;;;;4.43;2.90;;;13.60;48.50;;;;;;5083474;28;20504;-85
2023/04/25 08:01:03;;;;;;;3.33;2.40;;;13.80;50.70;;;;;;5080196;28;20457;-85
2023/04/25 08:03:36;;;;;;;2.50;2.30;;;13.70;47.70;;;;;;5070041;28;20790;-85
2023/04/25 08:06:07;;;;;;;3.53;2.57;;;13.80;48.90;;;;;;5045215;28;20479;-85
2023/04/25 08:08:39;;;;;;;3.17;2.67;;;13.90;48.30;;;;;;5093730;27;20443;-83
2023/04/25 08:11:10;;;;;;;8.77;3.57;;;14.10;48.00;;;;;;5095124;27;20435;-86
2023/04/25 08:13:39;;;;;;;4.27;2.80;;;14.30;48.00;;;;;;5068904;28;20482;-85
2023/04/25 08:16:08;;;;;;;2.87;2.67;;;14.40;48.00;;;;;;5094677;27;20507;-85
2023/04/25 08:18:36;;;;;;;5.23;3.00;;;14.70;47.40;;;;;;5049994;28;20451;-86
2023/04/25 08:21:03;;;;;;;3.87;2.77;;;14.90;47.00;;;;;;5091110;27;20978;-83
2023/04/25 08:23:31;;;;;;;3.20;2.73;;;14.90;46.20;;;;;;5075534;28;20465;-84
2023/04/25 08:26:04;;;;;;;2.27;2.07;;;14.60;43.60;;;;;;5092665;27;20444;-86
2023/04/25 08:28:34;;;;;;;2.40;1.90;;;14.30;43.30;;;;;;5063216;28;20455;-84
2023/04/25 08:31:04;;;;;;;3.67;2.27;;;14.20;42.60;;;;;;5108192;27;20862;-85
2023/04/25 08:33:39;;;;;;;5.33;2.77;;;14.20;42.70;;;;;;5092325;27;20494;-85
2023/04/25 08:36:29;;;;;;;2.57;2.20;;;14.20;44.80;;;;;;5085082;28;20455;-85
2023/04/25 08:38:56;;;;;;;2.40;2.20;;;14.40;43.90;;;;;;5089347;28;20823;-84
2023/04/25 08:41:23;;;;;;;5.30;2.37;;;14.40;43.40;;;;;;5075317;28;20456;-86
2023/04/25 08:43:52;;;;;;;5.23;2.57;;;14.70;43.60;;;;;;5068106;28;20474;-84
2023/04/25 08:46:20;;;;;;;3.23;2.00;;;14.90;43.30;;;;;;5073259;28;20834;-84
2023/04/25 08:49:18;;;;;;;4.33;2.70;;;14.90;41.70;;;;;;5080309;28;20470;-83
2023/04/25 08:51:47;;;;;;;10.00;2.93;;;15.20;42.50;;;;;;5094010;27;20447;-85
2023/04/25 08:54:16;;;;;;;2.50;2.30;;;15.40;42.90;;;;;;5076581;28;22378;-84
2023/04/25 08:56:47;;;;;;;3.97;2.47;;;15.20;42.30;;;;;;5072404;28;20452;-85
2023/04/25 08:59:14;;;;;;;4.50;2.50;;;15.10;42.90;;;;;;5091345;28;20446;-86
2023/04/25 09:01:46;;;;;;;2.23;1.90;;;15.20;43.40;;;;;;5092432;27;20455;-84
2023/04/25 09:04:13;;;;;;;4.03;2.93;;;15.20;41.60;;;;;;5058835;28;20455;-83
2023/04/25 09:06:41;;;;;;;3.60;2.53;;;15.30;43.00;;;;;;5049758;28;20470;-87
2023/04/25 09:09:10;;;;;;;2.60;1.97;;;15.40;41.60;;;;;;5075806;28;20452;-84
2023/04/25 09:11:38;;;;;;;3.80;2.40;;;15.10;40.30;;;;;;5074507;28;20531;-84
2023/04/25 09:14:14;;;;;;;4.13;2.00;;;15.00;42.50;;;;;;5074588;28;20574;-84
2023/04/25 09:17:03;;;;;;;3.43;2.43;;;15.00;42.50;;;;;;5077495;28;20956;-83
2023/04/25 09:19:52;;;;;;;3.20;1.97;;;15.10;43.10;;;;;;5090459;27;20444;-83
2023/04/25 09:22:25;;;;;;;3.60;2.20;;;14.80;43.00;;;;;;5092213;27;20451;-83
2023/04/25 09:24:53;;;;;;;3.37;2.50;;;14.80;41.80;;;;;;5068248;28;20481;-83
2023/04/25 09:27:24;;;;;;;6.90;2.40;;;14.40;40.70;;;;;;5073310;28;20456;-83
2023/04/25 09:29:59;;;;;;;3.27;2.60;;;14.30;42.20;;;;;;5083480;28;20561;-84
2023/04/25 09:32:28;;;;;;;2.83;2.27;;;14.10;42.40;;;;;;5083878;28;20830;-85
2023/04/25 09:34:58;;;;;;;6.10;2.40;;;14.30;44.40;;;;;;5076303;28;20466;-84
2023/04/25 09:37:29;;;;;;;6.20;3.03;;;14.70;42.90;;;;;;5058173;28;20848;-85
2023/04/25 09:40:14;;;;;;;3.33;3.03;;;15.10;42.60;;;;;;5105973;27;20609;-83
2023/04/25 09:42:55;;;;;;;4.07;2.53;;;15.10;43.20;;;;;;5089903;28;20455;-84
2023/04/25 09:45:25;;;;;;;5.13;2.50;;;15.20;43.30;;;;;;5078124;28;20507;-85
2023/04/25 09:47:57;;;;;;;3.40;2.10;;;15.50;42.30;;;;;;5049181;28;20452;-82
2023/04/25 09:50:27;;;;;;;4.60;2.40;;;15.70;40.80;;;;;;5072793;28;20479;-84
2023/04/25 09:53:05;;;;;;;13.30;7.47;;;15.50;43.20;;;;;;5068755;28;20478;-84
2023/04/25 09:55:48;;;;;;;3.53;2.90;;;15.70;43.20;;;;;;5104435;27;20451;-84
2023/04/25 09:58:16;;;;;;;4.40;2.53;;;16.10;42.90;;;;;;5086431;27;20447;-84
2023/04/25 10:00:43;;;;;;;4.50;2.70;;;16.60;42.80;;;;;;5072290;28;20436;-84
2023/04/25 10:03:26;;;;;;;3.93;2.77;;;16.70;38.60;;;;;;5073785;28;20758;-83
2023/04/25 10:06:20;;;;;;;3.90;2.37;;;16.40;39.50;;;;;;5086411;27;20975;-85
2023/04/25 10:08:52;;;;;;;4.27;2.90;;;16.50;39.70;;;;;;5090001;27;20473;-84
2023/04/25 10:11:19;;;;;;;4.50;2.70;;;16.40;39.90;;;;;;5053689;28;20499;-84
2023/04/25 10:13:47;;;;;;;5.07;3.60;;;16.30;40.80;;;;;;5087158;28;20862;-84
2023/04/25 10:16:16;;;;;;;2.83;2.50;;;16.30;41.50;;;;;;5089045;28;20935;-83
2023/04/25 10:18:44;;;;;;;6.23;2.70;;;16.50;41.50;;;;;;5089798;28;20451;-84
2023/04/25 10:21:12;;;;;;;9.60;2.53;;;16.90;42.60;;;;;;5076607;27;20439;-85
2023/04/25 10:23:39;;;;;;;3.73;2.67;;;17.40;41.00;;;;;;5088509;28;20464;-84
2023/04/25 10:26:12;;;;;;;3.47;2.97;;;17.50;38.10;;;;;;5086658;28;20442;-85
2023/04/25 10:28:57;;;;;;;2.67;2.47;;;17.70;38.50;;;;;;5069020;28;20957;-84
2023/04/25 10:31:25;;;;;;;3.83;2.60;;;17.80;38.00;;;;;;5053777;28;20475;-84
2023/04/25 10:33:54;;;;;;;2.73;2.53;;;17.60;37.80;;;;;;5069553;28;20478;-85
2023/04/25 10:36:23;;;;;;;3.70;2.50;;;17.20;37.80;;;;;;5087474;27;20948;-84
2023/04/25 10:38:51;;;;;;;3.77;2.60;;;17.00;38.50;;;;;;5088943;28;21021;-84
2023/04/25 10:41:20;;;;;;;6.80;2.93;;;16.60;38.70;;;;;;5056466;27;21038;-85
2023/04/25 10:43:47;;;;;;;3.27;2.37;;;16.20;39.70;;;;;;5072516;28;20989;-85
2023/04/25 10:46:16;;;;;;;3.40;2.50;;;16.10;40.90;;;;;;5084480;27;20546;-85
2023/04/25 10:48:52;;;;;;;3.53;2.27;;;16.10;40.20;;;;;;5086850;28;20489;-84
2023/04/25 10:51:22;;;;;;;3.83;2.60;;;16.10;41.00;;;;;;5054881;28;20502;-84
2023/04/25 10:53:59;;;;;;;5.40;2.30;;;16.10;39.80;;;;;;5072288;28;20474;-83
2023/04/25 10:56:31;;;;;;;4.10;2.60;;;16.00;40.20;;;;;;5102651;27;20780;-84
2023/04/25 10:59:09;;;;;;;3.07;2.10;;;16.00;38.70;;;;;;5044097;28;20451;-83
2023/04/25 11:01:39;;;;;;;7.43;2.30;;;15.80;39.60;;;;;;5087384;27;20982;-84
2023/04/25 11:04:06;;;;;;;4.90;2.20;;;15.80;40.20;;;;;;5084658;28;20474;-85
2023/04/25 11:06:47;;;;;;;5.57;2.63;;;15.70;39.00;;;;;;5088965;27;20481;-85
2023/04/25 11:09:15;;;;;;;3.03;2.60;;;15.40;38.90;;;;;;5071975;28;20490;-85
2023/04/25 11:11:42;;;;;;;2.97;2.60;;;15.20;41.80;;;;;;5088725;27;20502;-85
2023/04/25 11:14:09;;;;;;;3.53;2.37;;;15.20;41.40;;;;;;5068351;28;20475;-85
2023/04/25 11:16:37;;;;;;;2.87;2.57;;;15.30;41.70;;;;;;5090983;28;20448;-85
2023/04/25 11:19:05;;;;;;;2.83;2.53;;;15.40;42.10;;;;;;5090014;28;20539;-85
2023/04/25 11:21:32;;;;;;;3.17;2.57;;;15.70;42.10;;;;;;5104953;27;20545;-84
2023/04/25 11:24:01;;;;;;;4.17;2.67;;;15.90;41.60;;;;;;5088617;28;20474;-84
2023/04/25 11:26:28;;;;;;;4.10;2.40;;;15.90;43.30;;;;;;5089813;28;20446;-87
2023/04/25 11:28:59;;;;;;;3.53;2.60;;;16.20;40.40;;;;;;5088768;28;20729;-84
2023/04/25 11:31:26;;;;;;;4.37;2.90;;;16.20;40.80;;;;;;5088198;28;20470;-84
2023/04/25 11:33:54;;;;;;;3.53;2.50;;;15.90;39.40;;;;;;5045373;28;20474;-84
2023/04/25 11:36:23;;;;;;;4.03;2.90;;;15.90;40.50;;;;;;5068524;28;20447;-84
2023/04/25 11:38:51;;;;;;;4.37;2.90;;;15.90;39.70;;;;;;5105298;27;20535;-84
2023/04/25 11:41:20;;;;;;;3.00;2.70;;;16.00;41.50;;;;;;5089131;28;20446;-84
2023/04/25 11:43:47;;;;;;;4.67;3.50;;;15.50;40.70;;;;;;5086531;28;20976;-83
2023/04/25 11:46:14;;;;;;;3.03;2.73;;;15.70;42.20;;;;;;5089734;28;20978;-82
2023/04/25 11:48:42;;;;;;;5.83;3.27;;;16.00;40.90;;;;;;5090060;28;20941;-84
2023/04/25 11:51:09;;;;;;;5.73;3.07;;;16.10;40.30;;;;;;5078294;28;20697;-83
2023/04/25 11:53:36;;;;;;;4.47;3.17;;;16.00;40.50;;;;;;5090255;28;20450;-84
2023/04/25 11:56:10;;;;;;;4.80;3.37;;;16.20;41.10;;;;;;5087928;28;20541;-85
2023/04/25 11:58:57;;;;;;;6.13;3.23;;;16.50;39.80;;;;;;5091847;28;20468;-84
2023/04/25 12:01:32;;;;;;;4.67;3.37;;;16.30;40.30;;;;;;5091800;28;20530;-85
2023/04/25 12:03:59;;;;;;;5.30;3.37;;;16.30;41.20;;;;;;5088513;28;20557;-83
2023/04/25 12:06:29;;;;;;;3.83;3.20;;;16.30;39.80;;;;;;5089387;28;20440;-84
2023/04/25 12:09:04;;;;;;;5.10;3.00;;;16.20;40.40;;;;;;5088735;28;20443;-83
2023/04/25 12:11:32;;;;;;;6.27;3.10;;;15.90;39.80;;;;;;5071173;28;21037;-83
2023/04/25 12:14:05;;;;;;;2.93;2.60;;;15.70;39.60;;;;;;5072844;28;20466;-84
2023/04/25 12:16:42;;;;;;;4.40;2.73;;;15.50;41.30;;;;;;5055965;28;20454;-82
2023/04/25 12:19:09;;;;;;;3.77;2.90;;;15.60;41.50;;;;;;5087910;28;20447;-84
2023/04/25 12:21:36;;;;;;;4.63;3.10;;;15.50;42.60;;;;;;5089627;28;20451;-83
2023/04/25 12:24:12;;;;;;;3.77;2.90;;;15.40;42.20;;;;;;5086909;28;20460;-85
2023/04/25 12:26:50;;;;;;;3.60;3.30;;;15.50;41.80;;;;;;5091200;28;20439;-83
2023/04/25 12:29:20;;;;;;;3.77;2.90;;;15.40;42.00;;;;;;5069020;28;20512;-85
2023/04/25 12:31:47;;;;;;;5.27;3.47;;;15.30;41.50;;;;;;5053178;28;20459;-85
2023/04/25 12:34:14;;;;;;;7.00;3.80;;;15.10;42.20;;;;;;5086511;28;21047;-82
2023/04/25 12:36:41;;;;;;;5.50;3.97;;;15.20;43.50;;;;;;5089228;28;20452;-84
2023/04/25 12:39:10;;;;;;;4.40;4.00;;;15.50;42.40;;;;;;5087064;28;20443;-83
2023/04/25 12:41:37;;;;;;;5.40;4.87;;;15.50;42.50;;;;;;5102663;27;20452;-84
2023/04/25 12:44:04;;;;;;;6.83;4.13;;;15.30;42.20;;;;;;5087923;28;20597;-83
2023/04/25 12:46:33;;;;;;;3.37;2.93;;;15.40;44.00;;;;;;5088428;28;20915;-84
2023/04/25 12:49:00;;;;;;;8.73;4.00;;;15.40;42.90;;;;;;5059476;28;20452;-84
2023/04/25 12:51:27;;;;;;;7.10;4.70;;;15.10;42.80;;;;;;5091597;28;20944;-84
2023/04/25 12:53:55;;;;;;;9.40;4.43;;;15.00;43.60;;;;;;5090725;28;20471;-85
2023/04/25 12:56:22;;;;;;;4.00;2.63;;;14.80;45.20;;;;;;5093857;27;20447;-84
2023/04/25 12:58:49;;;;;;;5.63;3.63;;;15.00;45.20;;;;;;5092238;28;20800;-84
2023/04/25 13:01:16;;;;;;;9.60;4.30;;;15.20;44.50;;;;;;5090955;28;20522;-82
2023/04/25 13:03:44;;;;;;;9.03;3.37;;;15.00;43.10;;;;;;5093488;28;20466;-84
2023/04/25 13:06:12;;;;;;;6.77;3.63;;;15.20;44.50;;;;;;5091135;27;20438;-84